Time;durP1;ratioP1;P1;durP2;ratioP2;P2;SDS_P1;SDS_P2;PMS_P1;PMS_P2;Temp;Humidity;BMP_temperature;BMP_pressure;BME280_temperature;BME280_humidity;BME280_pressure;Samples;Min_cycle;Max_cycle;Signal;HPM_P1;HPM_P2
2024/03/19 00:10:01;;;;;;;2.10;1.80;;;;;;;3.28;75.06;98451.61;102716;1293;599888;-24
2024/03/19 00:12:32;;;;;;;0.80;0.70;;;;;;;3.08;75.13;98448.23;105116;1264;61504;-24
2024/03/19 00:15:00;;;;;;;2.20;1.50;;;;;;;3.12;75.09;98445.21;104886;1266;61169;-24
2024/03/19 00:17:27;;;;;;;1.30;1.10;;;;;;;2.69;76.56;98437.11;105057;1270;73013;-24
2024/03/19 00:19:55;;;;;;;2.50;1.60;;;;;;;2.76;76.84;98435.13;105025;1269;73160;-24
2024/03/19 00:22:23;;;;;;;3.10;1.80;;;;;;;3.26;74.81;98435.77;104975;1266;71624;-26
2024/03/19 00:24:50;;;;;;;2.50;1.70;;;;;;;3.28;74.40;98429.84;105405;1258;193764;-27
2024/03/19 00:27:18;;;;;;;4.10;2.30;;;;;;;3.09;74.52;98420.84;105580;1254;61105;-27
2024/03/19 00:37:27;;;;;;;2.00;1.70;;;;;;;3.23;74.69;98415.23;102665;1290;599041;-24
2024/03/19 00:39:55;;;;;;;2.40;2.00;;;;;;;2.98;75.23;98410.52;104811;1266;61105;-24
2024/03/19 00:50:01;;;;;;;2.30;1.90;;;;;;;3.15;74.77;98391.16;102724;1293;599923;-25
2024/03/19 00:52:29;;;;;;;2.80;2.00;;;;;;;3.06;74.94;98390.67;104800;1271;61282;-24
2024/03/19 00:54:57;;;;;;;2.40;1.80;;;;;;;2.74;76.00;98386.94;104908;1265;61156;-24
2024/03/19 00:57:24;;;;;;;3.00;2.40;;;;;;;2.64;76.78;98388.89;104789;1266;72094;-25
2024/03/19 00:59:52;;;;;;;5.10;2.40;;;;;;;2.97;75.86;98380.25;104733;1273;74301;-25
2024/03/19 01:02:20;;;;;;;2.00;1.80;;;;;;;3.19;74.53;98381.14;104706;1268;72682;-25
2024/03/19 01:11:49;;;;;;;2.90;1.60;;;;;;;2.51;77.68;98369.07;102736;1293;600349;-27
2024/03/19 01:14:17;;;;;;;2.70;2.00;;;;;;;2.85;76.55;98370.48;105393;1260;61061;-26
2024/03/19 01:16:45;;;;;;;3.40;2.10;;;;;;;3.04;75.76;98370.41;105540;1262;61168;-28
2024/03/19 01:19:12;;;;;;;3.10;1.90;;;;;;;2.88;76.07;98361.27;105209;1266;73018;-29
2024/03/19 01:21:40;;;;;;;2.80;2.10;;;;;;;2.65;76.66;98361.08;105295;1260;74312;-29
2024/03/19 01:24:08;;;;;;;2.60;2.20;;;;;;;2.33;78.66;98358.35;105277;1266;72726;-29
2024/03/19 01:33:21;;;;;;;3.30;2.30;;;;;;;2.57;77.64;98347.54;102719;1293;599280;-26
2024/03/19 01:35:49;;;;;;;2.80;1.20;;;;;;;2.44;78.34;98345.02;105008;1269;61250;-29
2024/03/19 01:38:16;;;;;;;1.60;1.50;;;;;;;2.97;76.19;98343.90;104904;1267;61068;-27
2024/03/19 01:48:24;;;;;;;2.60;1.80;;;;;;;2.56;78.07;98321.30;102660;1292;599855;-27
2024/03/19 01:50:52;;;;;;;2.20;1.70;;;;;;;2.99;76.58;98325.95;105598;1255;61153;-25
2024/03/19 01:53:20;;;;;;;3.70;2.30;;;;;;;3.09;75.61;98325.52;105567;1254;61108;-25
2024/03/19 01:55:48;;;;;;;2.60;2.20;;;;;;;2.99;75.95;98332.28;105584;1255;73042;-25
2024/03/19 01:58:16;;;;;;;2.90;2.10;;;;;;;2.80;76.24;98319.89;105358;1255;73503;-25
2024/03/19 02:00:44;;;;;;;2.00;1.70;;;;;;;2.64;77.38;98307.01;105535;1254;71397;-24
2024/03/19 02:03:13;;;;;;;2.00;1.60;;;;;;;2.93;76.38;98297.14;105518;1259;266291;-25
2024/03/19 02:05:45;;;;;;;1.90;1.60;;;;;;;2.90;75.81;98278.30;105868;1256;61186;-25
2024/03/19 02:08:13;;;;;;;2.20;1.60;;;;;;;2.53;77.32;98268.73;105409;1253;71607;-25
2024/03/19 02:10:47;;;;;;;1.80;1.50;;;;;;;2.48;77.86;98279.12;105580;1253;74361;-25
2024/03/19 02:13:15;;;;;;;2.00;1.60;;;;;;;2.56;78.04;98284.85;105702;1257;72674;-26
2024/03/19 02:15:42;;;;;;;1.60;1.20;;;;;;;2.88;76.35;98286.81;105348;1259;61225;-26
2024/03/19 02:25:48;;;;;;;1.80;1.20;;;;;;;2.51;77.99;98281.90;102713;1292;599537;-25
2024/03/19 02:35:51;;;;;;;1.70;1.30;;;;;;;2.42;78.23;98262.91;102705;1292;600068;-25
2024/03/19 02:45:29;;;;;;;1.30;1.20;;;;;;;2.78;76.95;98257.29;102705;1292;601045;-25
2024/03/19 02:47:56;;;;;;;1.20;1.10;;;;;;;2.72;77.16;98259.69;104901;1266;61111;-25
2024/03/19 02:50:24;;;;;;;1.40;1.20;;;;;;;2.40;78.54;98263.87;104861;1267;61094;-25
2024/03/19 02:52:52;;;;;;;2.00;1.40;;;;;;;2.50;78.82;98264.27;104826;1267;73039;-25
2024/03/19 02:55:19;;;;;;;1.40;1.10;;;;;;;2.85;77.22;98258.06;104773;1266;73097;-25
2024/03/19 02:57:47;;;;;;;1.90;1.30;;;;;;;2.94;76.39;98253.20;104810;1267;72617;-25
2024/03/19 03:07:54;;;;;;;1.70;1.30;;;;;;;2.65;78.18;98233.73;102684;1292;601200;-26
2024/03/19 03:10:22;;;;;;;1.70;1.10;;;;;;;2.75;77.65;98232.09;105050;1267;61263;-25
2024/03/19 03:12:50;;;;;;;1.50;1.40;;;;;;;2.54;78.21;98233.02;105076;1269;61181;-25
2024/03/19 03:15:17;;;;;;;1.10;0.90;;;;;;;2.32;79.44;98227.02;104834;1266;73053;-25
2024/03/19 03:17:45;;;;;;;1.50;1.40;;;;;;;2.67;78.39;98226.73;105067;1269;73166;-25
2024/03/19 03:20:13;;;;;;;1.30;1.00;;;;;;;2.68;77.77;98213.98;104817;1267;72727;-25
2024/03/19 03:22:40;;;;;;;1.30;1.20;;;;;;;2.48;78.86;98214.89;104887;1263;275676;-25
2024/03/19 03:25:11;;;;;;;1.30;1.20;;;;;;;2.55;78.50;98211.36;105059;1263;61144;-27
2024/03/19 03:27:39;;;;;;;1.50;1.30;;;;;;;2.18;80.04;98203.52;105184;1269;71763;-27
2024/03/19 03:30:10;;;;;;;1.40;1.20;;;;;;;2.62;78.87;98207.30;105180;1263;74326;-27
2024/03/19 03:32:39;;;;;;;1.70;1.50;;;;;;;2.64;78.46;98205.02;104862;1263;71443;-27
2024/03/19 03:35:10;;;;;;;2.30;1.20;;;;;;;2.34;79.74;98206.85;105236;1263;61110;-28
2024/03/19 03:37:38;;;;;;;1.80;1.20;;;;;;;2.44;79.22;98205.86;105165;1263;61033;-28
2024/03/19 03:40:19;;;;;;;1.10;0.90;;;;;;;2.69;78.94;98200.41;105197;1266;72615;-27
2024/03/19 03:50:21;;;;;;;1.10;0.70;;;;;;;2.18;80.66;98189.09;102685;1294;598948;-26
2024/03/19 03:52:49;;;;;;;1.10;1.00;;;;;;;2.62;79.48;98190.02;104887;1267;61059;-26
2024/03/19 03:55:16;;;;;;;2.00;1.40;;;;;;;2.87;77.82;98192.27;104810;1267;61138;-26
2024/03/19 03:57:45;;;;;;;1.30;0.90;;;;;;;2.49;79.21;98186.57;104785;1272;73028;-26
2024/03/19 04:00:14;;;;;;;1.00;0.90;;;;;;;2.22;80.26;98191.95;104756;1282;73180;-26
2024/03/19 04:02:42;;;;;;;2.00;1.10;;;;;;;2.57;79.74;98196.55;104797;1267;71408;-26
2024/03/19 04:05:10;;;;;;;0.90;0.90;;;;;;;2.57;79.26;98190.84;104565;1270;204043;-26
2024/03/19 04:07:39;;;;;;;1.00;0.90;;;;;;;2.60;78.99;98192.55;104750;1271;61039;-26
2024/03/19 04:10:08;;;;;;;1.20;0.90;;;;;;;2.82;77.77;98199.91;104798;1269;71791;-26
2024/03/19 04:12:36;;;;;;;1.80;1.20;;;;;;;2.75;78.25;98203.45;105019;1264;74311;-26
2024/03/19 04:15:05;;;;;;;0.80;0.70;;;;;;;3.22;76.42;98208.20;105034;1264;71415;-26
2024/03/19 04:17:33;;;;;;;0.90;0.80;;;;;;;3.03;76.86;98195.68;105042;1267;61183;-26
2024/03/19 04:20:05;;;;;;;0.90;0.90;;;;;;;2.77;77.81;98190.86;104862;1266;61110;-26
2024/03/19 04:22:33;;;;;;;1.00;0.90;;;;;;;2.74;77.93;98194.80;104818;1267;73911;-27
2024/03/19 04:25:02;;;;;;;1.00;0.90;;;;;;;2.60;78.80;98201.82;105087;1261;74413;-28
2024/03/19 04:27:30;;;;;;;0.90;0.80;;;;;;;2.75;78.28;98195.08;104902;1261;71476;-29
2024/03/19 04:29:58;;;;;;;1.00;0.90;;;;;;;2.93;77.47;98192.55;105026;1267;61183;-31
2024/03/19 04:39:59;;;;;;;0.60;0.60;;;;;;;2.86;78.18;98188.88;103511;1284;600185;-31
2024/03/19 04:42:27;;;;;;;0.70;0.70;;;;;;;2.71;78.54;98187.27;104876;1267;61101;-33
2024/03/19 04:44:54;;;;;;;0.60;0.60;;;;;;;2.48;79.56;98191.23;105018;1270;61192;-33
2024/03/19 04:54:04;;;;;;;0.40;0.40;;;;;;;2.88;77.77;98201.44;102843;1294;600327;-27
2024/03/19 04:56:32;;;;;;;0.40;0.40;;;;;;;2.70;78.50;98191.78;105643;1254;61193;-26
2024/03/19 04:59:00;;;;;;;0.50;0.50;;;;;;;2.37;80.07;98198.81;105597;1261;61242;-26
2024/03/19 05:09:09;;;;;;;0.50;0.50;;;;;;;2.80;78.74;98190.33;102671;1292;599117;-25
2024/03/19 05:11:36;;;;;;;1.50;1.00;;;;;;;2.51;79.77;98190.52;104849;1267;61159;-26
2024/03/19 05:21:42;;;;;;;1.30;1.20;;;;;;;3.08;77.37;98197.80;102700;1292;600973;-30
2024/03/19 05:24:13;;;;;;;1.30;1.10;;;;;;;3.06;77.81;98202.52;104801;1267;61278;-31
2024/03/19 05:26:41;;;;;;;1.90;1.50;;;;;;;2.86;78.34;98197.13;105388;1259;61112;-30
2024/03/19 05:29:09;;;;;;;2.20;1.20;;;;;;;3.05;77.68;98202.96;105224;1266;73048;-29
2024/03/19 05:31:37;;;;;;;2.90;1.50;;;;;;;3.47;76.25;98205.94;105326;1263;74441;-29
2024/03/19 05:34:05;;;;;;;3.20;1.30;;;;;;;3.30;76.64;98201.52;105248;1263;72604;-30
2024/03/19 05:36:33;;;;;;;5.40;1.90;;;;;;;3.37;76.39;98201.43;105367;1260;284272;-27
2024/03/19 05:39:00;;;;;;;2.10;1.40;;;;;;;3.13;77.40;98201.08;105435;1257;61108;-29
2024/03/19 05:41:28;;;;;;;0.90;0.80;;;;;;;2.73;79.33;98200.35;105310;1257;73073;-29
2024/03/19 05:43:56;;;;;;;1.50;1.30;;;;;;;3.33;77.74;98210.43;105391;1257;74368;-29
2024/03/19 05:46:25;;;;;;;2.50;1.30;;;;;;;3.53;76.43;98202.10;105186;1257;71525;-30
2024/03/19 05:56:33;;;;;;;2.40;1.60;;;;;;;2.98;80.59;98200.31;102671;1292;599437;-29
2024/03/19 05:59:00;;;;;;;1.90;1.30;;;;;;;3.45;78.55;98207.73;104779;1267;61161;-29
2024/03/19 06:01:28;;;;;;;2.90;2.20;;;;;;;3.24;79.27;98210.33;104780;1267;61181;-29
2024/03/19 06:03:56;;;;;;;2.40;1.90;;;;;;;3.35;79.22;98212.73;104765;1272;73002;-29
2024/03/19 06:06:24;;;;;;;5.70;3.40;;;;;;;3.18;79.67;98212.59;104819;1267;75894;-29
2024/03/19 06:08:51;;;;;;;5.10;2.90;;;;;;;3.26;80.00;98217.42;104778;1270;75326;-29
2024/03/19 06:11:19;;;;;;;1.30;1.10;;;;;;;3.80;77.83;98219.23;104906;1269;198175;-29
2024/03/19 06:21:21;;;;;;;4.80;1.80;;;;;;;3.53;78.84;98221.84;102715;1292;598576;-29
2024/03/19 06:31:22;;;;;;;2.60;1.70;;;;;;;3.76;78.14;98225.46;103029;1288;599552;-26
2024/03/19 06:33:50;;;;;;;2.40;1.70;;;;;;;3.76;78.32;98222.06;104795;1266;61171;-29
2024/03/19 06:36:18;;;;;;;2.10;1.60;;;;;;;3.76;78.54;98221.54;104862;1268;61212;-28
2024/03/19 06:38:47;;;;;;;3.20;1.90;;;;;;;4.06;77.66;98219.55;104910;1264;73053;-27
2024/03/19 06:41:14;;;;;;;2.60;1.40;;;;;;;4.41;76.38;98222.14;104862;1266;74317;-27
2024/03/19 06:43:42;;;;;;;2.80;1.90;;;;;;;4.51;75.55;98217.82;105322;1260;72710;-27
2024/03/19 06:46:12;;;;;;;4.00;2.30;;;;;;;3.98;78.22;98221.10;105421;1262;218247;-27
2024/03/19 06:48:40;;;;;;;8.80;3.20;;;;;;;3.91;78.54;98221.54;105657;1257;62744;-27
2024/03/19 06:51:08;;;;;;;9.10;5.30;;;;;;;3.95;79.31;98229.17;105525;1261;72007;-27
2024/03/19 06:53:35;;;;;;;2.80;2.30;;;;;;;4.62;75.99;98227.95;105585;1257;73109;-27
2024/03/19 06:56:10;;;;;;;6.80;3.30;;;;;;;4.61;76.08;98225.41;105552;1257;75446;-27
2024/03/19 06:58:37;;;;;;;4.40;3.00;;;;;;;4.45;76.96;98230.83;105242;1261;61131;-27
2024/03/19 07:01:05;;;;;;;7.00;4.50;;;;;;;4.75;76.00;98234.44;105589;1257;61115;-27
2024/03/19 07:03:33;;;;;;;3.90;2.10;;;;;;;4.56;76.68;98231.97;105542;1255;75869;-27
2024/03/19 07:06:01;;;;;;;4.70;3.10;;;;;;;4.86;76.22;98226.76;105568;1256;78471;-27
2024/03/19 07:08:30;;;;;;;3.70;3.20;;;;;;;5.32;74.50;98224.02;105608;1256;75196;-25
2024/03/19 07:10:58;;;;;;;3.90;3.20;;;;;;;5.37;74.04;98225.69;105571;1260;61537;-25
2024/03/19 07:13:25;;;;;;;3.90;3.30;;;;;;;5.13;74.89;98229.49;105590;1261;61061;-25
2024/03/19 07:15:53;;;;;;;5.70;3.50;;;;;;;4.98;76.12;98226.77;105498;1262;75507;-27
2024/03/19 07:18:22;;;;;;;5.80;3.40;;;;;;;4.96;76.79;98227.27;105528;1262;74399;-25
2024/03/19 07:20:51;;;;;;;20.50;11.70;;;;;;;5.54;74.81;98234.28;105529;1258;75557;-27
2024/03/19 07:23:19;;;;;;;17.60;10.80;;;;;;;5.87;73.53;98235.85;105391;1256;62514;-26
2024/03/19 07:25:47;;;;;;;33.00;18.80;;;;;;;5.79;73.78;98240.23;105484;1262;62266;-27
2024/03/19 07:28:16;;;;;;;24.00;14.50;;;;;;;5.69;74.35;98236.84;105491;1258;76958;-27
2024/03/19 07:30:44;;;;;;;12.70;8.50;;;;;;;5.34;75.97;98231.95;105461;1262;78366;-27
2024/03/19 07:33:12;;;;;;;19.30;11.70;;;;;;;5.35;76.79;98239.98;105517;1257;75570;-26
2024/03/19 07:35:40;;;;;;;25.10;13.40;;;;;;;5.68;75.13;98242.73;105514;1261;62900;-26
2024/03/19 07:38:07;;;;;;;70.70;48.70;;;;;;;5.54;75.39;98242.73;105531;1262;61544;-26
2024/03/19 07:40:35;;;;;;;14.20;7.70;;;;;;;5.26;77.21;98241.34;105319;1257;74257;-26
2024/03/19 07:43:03;;;;;;;15.90;10.90;;;;;;;5.39;76.59;98247.08;105457;1259;75597;-27
2024/03/19 07:45:32;;;;;;;8.10;5.80;;;;;;;4.98;78.48;98249.34;105632;1257;75481;-26
2024/03/19 07:48:04;;;;;;;39.20;19.20;;;;;;;5.40;77.02;98252.55;105544;1256;61360;-26
2024/03/19 07:50:34;;;;;;;46.90;18.30;;;;;;;6.34;74.03;98261.63;105588;1258;62548;-26
2024/03/19 07:53:02;;;;;;;28.60;12.60;;;;;;;5.95;73.87;98263.13;105511;1260;77754;-26
2024/03/19 07:55:29;;;;;;;48.00;20.50;;;;;;;5.42;76.12;98261.52;105550;1263;76742;-26
2024/03/19 07:57:57;;;;;;;39.80;15.80;;;;;;;5.07;77.63;98271.54;105555;1257;75495;-26
2024/03/19 08:00:25;;;;;;;11.10;5.40;;;;;;;5.62;75.67;98278.48;105536;1257;63653;-26
2024/03/19 08:02:53;;;;;;;10.70;5.30;;;;;;;5.96;73.58;98284.11;105464;1256;61876;-26
2024/03/19 08:05:21;;;;;;;6.40;4.40;;;;;;;6.41;71.82;98288.83;105427;1260;76376;-26
2024/03/19 08:07:48;;;;;;;4.90;3.30;;;;;;;6.49;70.60;98292.69;105480;1261;76951;-26
2024/03/19 08:10:16;;;;;;;3.20;2.30;;;;;;;6.16;70.82;98302.77;105151;1258;76674;-26
2024/03/19 08:12:44;;;;;;;2.50;2.10;;;;;;;5.68;71.25;98300.42;105258;1257;62930;-26
2024/03/19 08:15:12;;;;;;;6.70;3.90;;;;;;;5.50;70.54;98301.85;105607;1258;61527;-25
2024/03/19 08:17:41;;;;;;;9.10;5.20;;;;;;;5.09;72.30;98310.34;105634;1257;75126;-26
2024/03/19 08:20:16;;;;;;;7.60;4.40;;;;;;;4.75;74.75;98317.77;105585;1256;75831;-26
2024/03/19 08:22:43;;;;;;;7.50;3.60;;;;;;;5.51;70.89;98315.21;105581;1256;72202;-26
2024/03/19 08:25:11;;;;;;;23.50;8.60;;;;;;;5.08;70.65;98310.20;105518;1260;62049;-26
2024/03/19 08:27:39;;;;;;;12.30;6.70;;;;;;;4.47;72.49;98321.94;105314;1257;61050;-26
2024/03/19 08:30:10;;;;;;;14.60;7.20;;;;;;;5.01;70.54;98322.74;105477;1256;75346;-26
2024/03/19 08:32:38;;;;;;;25.00;18.00;;;;;;;3.98;73.39;98328.59;105250;1264;76819;-26
2024/03/19 08:35:08;;;;;;;15.10;7.80;;;;;;;4.26;73.83;98333.13;105701;1257;76680;-26
2024/03/19 08:37:36;;;;;;;7.30;4.10;;;;;;;4.65;72.02;98337.40;105669;1254;63924;-26
2024/03/19 08:40:09;;;;;;;17.40;8.90;;;;;;;4.48;71.76;98332.02;105841;1256;62220;-26
2024/03/19 08:42:36;;;;;;;12.30;6.10;;;;;;;4.31;73.44;98341.27;105728;1257;75552;-26
2024/03/19 08:45:05;;;;;;;14.30;7.00;;;;;;;4.31;73.54;98345.16;105852;1257;76733;-26
2024/03/19 08:47:32;;;;;;;12.90;5.90;;;;;;;3.62;76.61;98343.14;105758;1253;74013;-26
2024/03/19 08:50:00;;;;;;;17.10;10.00;;;;;;;3.97;76.29;98345.37;105709;1255;61348;-26
2024/03/19 08:52:28;;;;;;;29.20;15.00;;;;;;;4.53;73.65;98353.89;105921;1252;61436;-26
2024/03/19 08:54:56;;;;;;;55.50;32.80;;;;;;;4.26;74.66;98351.15;105702;1253;75418;-26
2024/03/19 08:57:23;;;;;;;30.20;17.20;;;;;;;3.91;75.91;98349.37;105883;1253;74445;-25
2024/03/19 08:59:52;;;;;;;14.30;7.00;;;;;;;3.54;77.68;98351.36;105646;1256;74448;-25
2024/03/19 09:02:19;;;;;;;4.70;2.80;;;;;;;3.71;77.54;98367.44;105874;1253;62027;-25
2024/03/19 09:04:47;;;;;;;4.90;3.50;;;;;;;4.81;73.99;98371.08;105777;1256;61148;-25
2024/03/19 09:07:15;;;;;;;5.40;3.70;;;;;;;4.85;71.66;98378.14;105689;1256;75583;-25
2024/03/19 09:09:45;;;;;;;5.40;3.80;;;;;;;4.62;72.92;98381.30;105641;1259;76990;-25
2024/03/19 09:12:13;;;;;;;6.70;5.60;;;;;;;4.12;74.19;98388.00;105648;1253;74366;-25
2024/03/19 09:14:41;;;;;;;9.50;7.00;;;;;;;3.44;76.78;98387.52;105788;1253;63197;-25
2024/03/19 09:17:09;;;;;;;7.90;5.00;;;;;;;3.71;76.84;98391.32;105666;1253;61501;-25
2024/03/19 09:19:39;;;;;;;9.80;6.20;;;;;;;4.18;75.55;98401.89;105657;1256;76332;-25
2024/03/19 09:22:06;;;;;;;7.70;4.90;;;;;;;3.94;74.14;98403.05;105706;1258;76818;-25
2024/03/19 09:24:34;;;;;;;6.70;5.00;;;;;;;4.39;73.86;98408.73;105828;1257;76682;-25
2024/03/19 09:27:03;;;;;;;15.00;8.60;;;;;;;5.16;70.87;98414.94;105701;1253;62309;-25
2024/03/19 09:29:31;;;;;;;7.40;5.40;;;;;;;4.26;73.14;98416.64;105863;1252;61493;-25
2024/03/19 09:31:58;;;;;;;7.20;4.60;;;;;;;4.23;72.24;98424.55;105860;1258;74725;-25
2024/03/19 09:34:26;;;;;;;12.60;9.60;;;;;;;3.79;74.15;98422.92;105854;1257;75699;-25
2024/03/19 09:36:54;;;;;;;9.90;4.20;;;;;;;3.43;75.84;98431.66;105673;1259;73800;-25
2024/03/19 09:39:23;;;;;;;5.80;4.00;;;;;;;3.85;73.72;98425.13;105746;1253;61148;-25
2024/03/19 09:41:57;;;;;;;16.20;10.70;;;;;;;2.96;76.30;98420.40;105564;1252;61152;-25
2024/03/19 09:44:24;;;;;;;17.30;11.90;;;;;;;3.21;76.40;98434.52;105687;1259;76698;-25
2024/03/19 09:46:52;;;;;;;16.20;9.70;;;;;;;3.85;74.67;98440.20;105710;1253;77289;-25
2024/03/19 09:49:20;;;;;;;10.90;5.50;;;;;;;4.08;73.03;98440.81;105828;1259;75529;-24
2024/03/19 09:51:48;;;;;;;11.70;5.60;;;;;;;3.64;74.77;98438.77;105896;1253;63702;-25
2024/03/19 09:54:16;;;;;;;17.80;9.20;;;;;;;3.66;74.87;98441.42;105837;1252;62619;-24
2024/03/19 09:56:47;;;;;;;18.30;11.50;;;;;;;3.55;74.95;98446.03;105744;1253;76575;-24
2024/03/19 09:59:18;;;;;;;17.70;9.30;;;;;;;3.52;75.62;98449.82;105930;1253;77320;-24
2024/03/19 10:01:46;;;;;;;21.00;10.80;;;;;;;3.55;76.13;98454.63;105730;1259;75479;-24
2024/03/19 10:04:15;;;;;;;16.40;8.00;;;;;;;3.62;75.54;98454.13;105680;1252;61320;-25
2024/03/19 10:06:43;;;;;;;39.80;19.20;;;;;;;3.54;75.96;98459.48;105418;1254;61447;-24
2024/03/19 10:09:11;;;;;;;20.30;10.70;;;;;;;3.95;74.59;98468.29;105697;1253;76627;-25
2024/03/19 10:11:39;;;;;;;16.80;9.60;;;;;;;4.09;73.94;98460.67;105734;1253;77412;-24
2024/03/19 10:14:09;;;;;;;84.90;36.60;;;;;;;4.37;71.81;98467.83;105859;1253;75375;-24
2024/03/19 10:16:41;;;;;;;31.80;16.20;;;;;;;3.57;75.06;98474.23;105741;1253;62558;-26
2024/03/19 10:19:12;;;;;;;9.30;5.40;;;;;;;4.10;73.09;98478.52;105713;1259;61615;-25
2024/03/19 10:21:40;;;;;;;6.40;3.40;;;;;;;3.94;73.29;98480.52;105816;1259;76556;-25
2024/03/19 10:24:17;;;;;;;21.00;11.00;;;;;;;4.40;72.14;98490.30;105762;1261;77170;-25
2024/03/19 10:26:44;;;;;;;5.60;3.70;;;;;;;4.34;71.05;98488.59;105677;1253;74441;-25
2024/03/19 10:29:13;;;;;;;10.40;5.90;;;;;;;4.73;70.35;98496.80;105801;1258;61189;-26
2024/03/19 10:31:42;;;;;;;7.40;4.10;;;;;;;4.50;69.89;98491.01;105782;1259;61896;-25
2024/03/19 10:34:18;;;;;;;20.60;10.80;;;;;;;4.30;71.21;98501.63;105744;1260;74990;-25
2024/03/19 10:36:50;;;;;;;8.10;4.90;;;;;;;4.30;71.63;98505.56;105717;1258;75558;-25
2024/03/19 10:39:22;;;;;;;6.20;4.20;;;;;;;4.62;69.85;98507.83;105453;1253;76887;-25
2024/03/19 10:41:52;;;;;;;12.10;6.90;;;;;;;5.09;67.65;98516.90;105503;1258;62826;-26
2024/03/19 10:44:21;;;;;;;27.40;14.00;;;;;;;4.92;68.57;98521.14;105644;1258;62886;-26
2024/03/19 10:46:50;;;;;;;12.20;6.80;;;;;;;4.21;71.25;98518.83;105593;1253;77360;-26
2024/03/19 10:49:19;;;;;;;13.00;7.50;;;;;;;4.29;70.28;98522.11;105547;1259;76031;-27
2024/03/19 10:52:12;;;;;;;5.70;3.60;;;;;;;3.65;72.57;98524.90;105531;1253;75358;-27
2024/03/19 10:54:41;;;;;;;4.40;2.70;;;;;;;4.25;70.79;98530.77;105326;1261;62145;-28
2024/03/19 10:57:17;;;;;;;3.60;1.90;;;;;;;4.20;71.48;98537.25;105501;1257;62887;-28
2024/03/19 10:59:45;;;;;;;6.70;4.00;;;;;;;5.19;68.34;98537.75;105745;1253;77684;-28
2024/03/19 11:02:16;;;;;;;7.80;3.80;;;;;;;5.32;67.05;98540.48;105686;1258;76599;-28
2024/03/19 11:04:43;;;;;;;23.20;10.70;;;;;;;4.88;68.37;98543.11;105676;1257;74836;-28
2024/03/19 11:07:24;;;;;;;6.00;3.20;;;;;;;4.93;68.63;98545.48;105681;1257;63339;-28
2024/03/19 11:09:55;;;;;;;16.30;7.20;;;;;;;4.45;69.81;98548.81;105612;1253;61309;-28
2024/03/19 11:12:23;;;;;;;3.40;2.10;;;;;;;4.98;68.19;98549.98;105634;1258;74963;-28
2024/03/19 11:14:55;;;;;;;5.40;3.70;;;;;;;5.34;66.48;98553.81;105549;1253;77099;-28
2024/03/19 11:17:27;;;;;;;5.10;3.60;;;;;;;4.89;68.01;98559.66;105671;1253;74495;-27
2024/03/19 11:19:56;;;;;;;10.40;4.70;;;;;;;5.71;65.61;98565.94;105722;1251;62141;-28
2024/03/19 11:22:24;;;;;;;6.20;4.20;;;;;;;5.27;66.15;98567.70;105734;1253;61233;-28
2024/03/19 11:24:53;;;;;;;7.70;4.30;;;;;;;5.54;66.42;98573.13;105991;1253;77333;-28
2024/03/19 11:27:21;;;;;;;3.30;2.30;;;;;;;5.27;66.26;98574.23;105765;1259;77249;-28
2024/03/19 11:29:49;;;;;;;8.00;4.20;;;;;;;5.51;65.65;98578.66;105851;1256;75050;-28
2024/03/19 11:32:23;;;;;;;7.50;4.60;;;;;;;5.32;66.10;98583.20;105859;1251;61304;-27
2024/03/19 11:34:54;;;;;;;4.20;2.90;;;;;;;4.70;69.00;98586.41;105677;1251;61770;-28
2024/03/19 11:37:21;;;;;;;4.30;3.00;;;;;;;5.94;65.04;98595.91;105530;1256;76045;-27
2024/03/19 11:39:49;;;;;;;7.60;3.70;;;;;;;6.37;63.63;98599.00;105655;1251;75247;-27
2024/03/19 11:42:17;;;;;;;10.40;4.70;;;;;;;6.08;63.72;98593.77;105608;1256;73289;-28
2024/03/19 11:44:46;;;;;;;2.90;2.10;;;;;;;5.88;63.93;98597.99;105535;1253;61546;-28
2024/03/19 11:47:14;;;;;;;4.90;4.30;;;;;;;4.79;67.21;98599.03;105561;1253;62768;-28
2024/03/19 11:49:42;;;;;;;12.70;7.60;;;;;;;5.43;65.46;98600.23;105548;1253;77154;-28
2024/03/19 11:52:11;;;;;;;3.60;2.50;;;;;;;4.96;66.87;98604.48;105526;1258;76621;-28
2024/03/19 11:54:40;;;;;;;18.70;9.00;;;;;;;5.91;64.32;98616.79;105486;1253;75614;-28
2024/03/19 11:57:14;;;;;;;4.30;2.90;;;;;;;6.42;62.39;98612.24;105301;1256;61608;-27
2024/03/19 11:59:42;;;;;;;14.20;6.70;;;;;;;6.20;62.59;98616.91;105417;1251;61586;-27
2024/03/19 12:02:11;;;;;;;13.60;5.80;;;;;;;6.11;63.07;98623.92;105527;1251;76863;-28
2024/03/19 12:04:41;;;;;;;5.40;3.50;;;;;;;5.48;64.77;98623.80;105320;1252;75606;-28
2024/03/19 12:07:10;;;;;;;4.20;2.60;;;;;;;5.72;63.94;98627.89;105773;1253;75313;-28
2024/03/19 12:09:38;;;;;;;11.70;5.80;;;;;;;5.52;63.81;98622.48;105383;1253;61955;-28
2024/03/19 12:12:08;;;;;;;2.70;1.80;;;;;;;5.31;64.78;98630.48;105597;1256;62860;-27
2024/03/19 12:14:38;;;;;;;3.00;2.00;;;;;;;5.90;62.28;98632.91;105384;1253;78627;-28
2024/03/19 12:17:06;;;;;;;3.10;2.00;;;;;;;6.27;61.09;98640.71;105618;1259;77177;-27
2024/03/19 12:19:34;;;;;;;3.30;2.30;;;;;;;6.72;60.15;98639.80;105764;1256;76707;-27
2024/03/19 12:22:02;;;;;;;5.50;4.20;;;;;;;6.95;59.79;98643.16;105890;1257;61372;-27
2024/03/19 12:24:30;;;;;;;5.80;3.70;;;;;;;6.24;61.68;98647.27;105821;1253;61526;-28
2024/03/19 12:26:57;;;;;;;8.00;4.30;;;;;;;5.81;63.04;98646.92;105536;1253;76035;-27
2024/03/19 12:29:26;;;;;;;8.10;3.40;;;;;;;6.42;61.14;98647.91;105808;1253;76955;-27
2024/03/19 12:32:02;;;;;;;8.00;5.60;;;;;;;5.94;62.12;98650.20;105587;1257;73539;-27
2024/03/19 12:35:33;;;;;;;5.40;3.70;;;;;;;6.59;61.85;98657.77;105592;1260;62099;-28
2024/03/19 12:37:27;;;;;;;4.70;3.40;;;;;;;6.75;60.45;98660.73;105523;1253;61418;-27
2024/03/19 12:39:55;;;;;;;4.00;3.00;;;;;;;6.64;59.25;98662.41;105571;1252;77078;-27
2024/03/19 12:42:23;;;;;;;7.70;5.40;;;;;;;7.28;57.45;98661.80;105638;1254;78381;-27
2024/03/19 12:44:51;;;;;;;4.60;3.10;;;;;;;6.78;58.81;98666.45;105883;1256;75690;-27
2024/03/19 12:47:19;;;;;;;4.50;3.10;;;;;;;6.33;59.54;98671.11;105779;1254;61780;-27
2024/03/19 12:49:46;;;;;;;5.20;3.60;;;;;;;6.26;59.79;98676.28;105549;1250;61334;-27
2024/03/19 12:52:14;;;;;;;6.60;4.00;;;;;;;6.52;59.07;98683.30;105527;1259;78591;-27
2024/03/19 12:54:42;;;;;;;102.20;30.60;;;;;;;6.34;59.79;98684.33;105541;1253;75452;-26
2024/03/19 12:57:11;;;;;;;42.20;17.00;;;;;;;6.20;60.09;98685.50;105598;1254;75069;-26
2024/03/19 12:59:43;;;;;;;14.50;6.80;;;;;;;6.87;59.06;98687.17;105866;1251;61334;-27
2024/03/19 13:02:10;;;;;;;11.20;7.50;;;;;;;7.67;56.75;98689.00;105913;1251;61200;-26
2024/03/19 13:04:38;;;;;;;9.50;6.50;;;;;;;7.02;57.02;98694.23;105659;1254;76239;-26
2024/03/19 13:07:06;;;;;;;7.90;5.50;;;;;;;6.54;58.63;98692.96;105520;1253;76153;-26
2024/03/19 13:09:34;;;;;;;9.90;6.90;;;;;;;7.36;57.03;98698.71;105525;1252;73991;-26
2024/03/19 13:12:02;;;;;;;12.40;7.10;;;;;;;7.35;56.66;98702.21;105549;1254;63245;-27
2024/03/19 13:14:29;;;;;;;4.90;2.70;;;;;;;6.43;58.68;98703.40;105752;1254;61834;-27
2024/03/19 13:16:57;;;;;;;3.90;2.50;;;;;;;6.51;58.45;98702.98;105872;1253;77111;-27
2024/03/19 13:19:25;;;;;;;3.90;2.70;;;;;;;6.69;58.07;98703.68;105891;1256;75600;-27
2024/03/19 13:21:53;;;;;;;3.00;2.40;;;;;;;6.71;58.31;98705.08;105852;1253;74489;-27
2024/03/19 13:24:21;;;;;;;4.60;3.80;;;;;;;7.34;56.82;98705.59;105619;1258;61388;-26
2024/03/19 13:26:49;;;;;;;46.50;18.80;;;;;;;7.88;55.77;98704.70;105646;1251;62773;-26
2024/03/19 13:29:16;;;;;;;26.10;11.70;;;;;;;7.91;54.68;98713.77;105514;1256;77295;-26
2024/03/19 13:31:44;;;;;;;8.20;5.30;;;;;;;7.34;55.95;98714.90;105644;1256;76516;-26
2024/03/19 13:34:12;;;;;;;7.60;4.10;;;;;;;6.53;57.21;98719.11;105542;1254;74173;-27
2024/03/19 13:36:40;;;;;;;9.20;4.00;;;;;;;6.98;56.62;98723.89;105834;1254;61772;-27
2024/03/19 13:39:10;;;;;;;4.70;3.40;;;;;;;6.14;58.30;98726.52;105834;1254;61710;-27
2024/03/19 13:41:52;;;;;;;5.10;3.20;;;;;;;5.76;60.40;98727.35;105547;1256;76397;-27
2024/03/19 13:44:20;;;;;;;8.90;4.10;;;;;;;5.78;60.68;98730.71;105607;1256;77447;-27
2024/03/19 13:46:48;;;;;;;5.80;3.20;;;;;;;5.72;60.55;98731.94;105606;1256;73889;-27
2024/03/19 13:49:23;;;;;;;7.70;4.30;;;;;;;5.59;61.12;98733.30;105567;1266;61154;-27
2024/03/19 13:51:51;;;;;;;3.80;2.50;;;;;;;5.58;61.61;98738.36;105501;1257;61629;-27